Terminal Aerodrome Forecast
Issued by NWS Wilmington, OH

Home | Current Version | Previous Version | Text Only | Print | Product List | Glossary On
Versions: 1 2 3 4 5 6 7 8 9 10 11 12 13
000
FTUS41 KILN 252325
TAFILN
TAF
KILN 252325Z 2600/2624 18006KT P6SM FEW050 SCT250
     FM260800 19006KT P6SM VCSH BKN035 BKN080
     FM261300 20008KT P6SM BKN035 BKN100
     FM261700 22010KT P6SM SCT035=

USA.gov is the U.S. government's official web portal to all federal, state and local government web resources and services.